sensor_id;sensor_type;location;lat;lon;timestamp;P1;durP1;ratioP1;P2;durP2;ratioP2
29916;SDS011;16786;49.466;11.068;2023-05-07T00:02:10;5.05;;;4.55;;
29916;SDS011;16786;49.466;11.068;2023-05-07T00:04:37;5.03;;;4.00;;
29916;SDS011;16786;49.466;11.068;2023-05-07T00:07:05;6.18;;;4.45;;
29916;SDS011;16786;49.466;11.068;2023-05-07T00:09:34;5.03;;;4.00;;
29916;SDS011;16786;49.466;11.068;2023-05-07T00:12:02;5.90;;;4.38;;
29916;SDS011;16786;49.466;11.068;2023-05-07T00:14:30;4.50;;;4.10;;
29916;SDS011;16786;49.466;11.068;2023-05-07T00:16:57;6.95;;;4.40;;
29916;SDS011;16786;49.466;11.068;2023-05-07T00:19:25;6.15;;;4.57;;
29916;SDS011;16786;49.466;11.068;2023-05-07T00:21:52;5.60;;;4.32;;
29916;SDS011;16786;49.466;11.068;2023-05-07T00:24:23;5.73;;;4.27;;
29916;SDS011;16786;49.466;11.068;2023-05-07T00:26:51;5.53;;;4.10;;
29916;SDS011;16786;49.466;11.068;2023-05-07T00:29:19;5.10;;;4.30;;
29916;SDS011;16786;49.466;11.068;2023-05-07T00:31:46;5.07;;;4.18;;
29916;SDS011;16786;49.466;11.068;2023-05-07T00:34:16;6.05;;;4.68;;
29916;SDS011;16786;49.466;11.068;2023-05-07T00:36:44;7.60;;;4.30;;
29916;SDS011;16786;49.466;11.068;2023-05-07T00:39:11;6.25;;;4.10;;
29916;SDS011;16786;49.466;11.068;2023-05-07T00:41:38;4.95;;;4.22;;
29916;SDS011;16786;49.466;11.068;2023-05-07T00:44:06;5.97;;;4.28;;
29916;SDS011;16786;49.466;11.068;2023-05-07T00:46:33;5.85;;;4.20;;
29916;SDS011;16786;49.466;11.068;2023-05-07T00:49:01;5.85;;;4.43;;
29916;SDS011;16786;49.466;11.068;2023-05-07T00:51:28;4.88;;;3.80;;
29916;SDS011;16786;49.466;11.068;2023-05-07T00:53:56;6.85;;;4.50;;
29916;SDS011;16786;49.466;11.068;2023-05-07T00:56:23;6.47;;;4.00;;
29916;SDS011;16786;49.466;11.068;2023-05-07T00:58:52;5.53;;;4.10;;
29916;SDS011;16786;49.466;11.068;2023-05-07T01:01:19;7.05;;;4.30;;
29916;SDS011;16786;49.466;11.068;2023-05-07T01:03:47;6.32;;;3.97;;
29916;SDS011;16786;49.466;11.068;2023-05-07T01:06:15;5.40;;;4.32;;
29916;SDS011;16786;49.466;11.068;2023-05-07T01:08:44;5.32;;;4.18;;
29916;SDS011;16786;49.466;11.068;2023-05-07T01:11:12;5.53;;;4.65;;
29916;SDS011;16786;49.466;11.068;2023-05-07T01:13:40;4.70;;;4.10;;
29916;SDS011;16786;49.466;11.068;2023-05-07T01:16:08;5.05;;;4.40;;
29916;SDS011;16786;49.466;11.068;2023-05-07T01:18:36;6.60;;;4.70;;
29916;SDS011;16786;49.466;11.068;2023-05-07T01:21:04;5.97;;;4.15;;
29916;SDS011;16786;49.466;11.068;2023-05-07T01:23:34;5.95;;;4.80;;
29916;SDS011;16786;49.466;11.068;2023-05-07T01:26:02;6.55;;;4.57;;
29916;SDS011;16786;49.466;11.068;2023-05-07T01:28:31;5.05;;;4.55;;
29916;SDS011;16786;49.466;11.068;2023-05-07T01:31:00;7.88;;;4.50;;
29916;SDS011;16786;49.466;11.068;2023-05-07T01:33:32;5.57;;;4.50;;
29916;SDS011;16786;49.466;11.068;2023-05-07T01:36:01;6.65;;;4.88;;
29916;SDS011;16786;49.466;11.068;2023-05-07T01:38:33;5.85;;;4.60;;
29916;SDS011;16786;49.466;11.068;2023-05-07T01:41:02;6.45;;;4.53;;
29916;SDS011;16786;49.466;11.068;2023-05-07T01:43:30;5.20;;;4.70;;
29916;SDS011;16786;49.466;11.068;2023-05-07T01:45:57;6.63;;;5.07;;
29916;SDS011;16786;49.466;11.068;2023-05-07T01:48:27;7.60;;;5.40;;
29916;SDS011;16786;49.466;11.068;2023-05-07T01:50:55;7.43;;;5.18;;
29916;SDS011;16786;49.466;11.068;2023-05-07T01:53:23;6.80;;;5.18;;
29916;SDS011;16786;49.466;11.068;2023-05-07T01:55:51;5.90;;;4.78;;
29916;SDS011;16786;49.466;11.068;2023-05-07T01:58:20;7.22;;;5.20;;
29916;SDS011;16786;49.466;11.068;2023-05-07T02:00:47;7.32;;;5.20;;
29916;SDS011;16786;49.466;11.068;2023-05-07T02:03:15;5.95;;;5.30;;
29916;SDS011;16786;49.466;11.068;2023-05-07T02:05:54;6.85;;;5.03;;
29916;SDS011;16786;49.466;11.068;2023-05-07T02:08:29;5.75;;;5.10;;
29916;SDS011;16786;49.466;11.068;2023-05-07T02:10:57;5.93;;;5.22;;
29916;SDS011;16786;49.466;11.068;2023-05-07T02:13:26;6.00;;;5.15;;
29916;SDS011;16786;49.466;11.068;2023-05-07T02:15:58;8.88;;;5.55;;
29916;SDS011;16786;49.466;11.068;2023-05-07T02:18:27;6.10;;;5.35;;
29916;SDS011;16786;49.466;11.068;2023-05-07T02:20:54;6.85;;;5.68;;
29916;SDS011;16786;49.466;11.068;2023-05-07T02:23:22;7.22;;;5.30;;
29916;SDS011;16786;49.466;11.068;2023-05-07T02:25:50;9.82;;;5.88;;
29916;SDS011;16786;49.466;11.068;2023-05-07T02:28:18;7.45;;;5.43;;
29916;SDS011;16786;49.466;11.068;2023-05-07T02:30:52;6.75;;;5.97;;
29916;SDS011;16786;49.466;11.068;2023-05-07T02:33:20;7.88;;;5.63;;
29916;SDS011;16786;49.466;11.068;2023-05-07T02:35:47;7.43;;;6.05;;
29916;SDS011;16786;49.466;11.068;2023-05-07T02:38:15;7.47;;;5.65;;
29916;SDS011;16786;49.466;11.068;2023-05-07T02:40:43;6.65;;;5.75;;
29916;SDS011;16786;49.466;11.068;2023-05-07T02:43:10;8.00;;;5.97;;
29916;SDS011;16786;49.466;11.068;2023-05-07T02:45:42;6.87;;;6.17;;
29916;SDS011;16786;49.466;11.068;2023-05-07T02:48:10;7.28;;;5.97;;
29916;SDS011;16786;49.466;11.068;2023-05-07T02:50:38;7.43;;;5.72;;
29916;SDS011;16786;49.466;11.068;2023-05-07T02:53:05;7.10;;;6.03;;
29916;SDS011;16786;49.466;11.068;2023-05-07T02:55:33;9.15;;;6.45;;
29916;SDS011;16786;49.466;11.068;2023-05-07T02:58:01;7.38;;;6.50;;
29916;SDS011;16786;49.466;11.068;2023-05-07T03:00:31;8.23;;;6.40;;
29916;SDS011;16786;49.466;11.068;2023-05-07T03:03:11;11.30;;;7.05;;
29916;SDS011;16786;49.466;11.068;2023-05-07T03:05:39;8.43;;;6.93;;
29916;SDS011;16786;49.466;11.068;2023-05-07T03:08:07;6.78;;;6.05;;
29916;SDS011;16786;49.466;11.068;2023-05-07T03:10:36;9.00;;;7.43;;
29916;SDS011;16786;49.466;11.068;2023-05-07T03:13:04;11.07;;;7.18;;
29916;SDS011;16786;49.466;11.068;2023-05-07T03:15:31;7.68;;;6.70;;
29916;SDS011;16786;49.466;11.068;2023-05-07T03:17:59;8.32;;;6.50;;
29916;SDS011;16786;49.466;11.068;2023-05-07T03:20:27;8.90;;;7.10;;
29916;SDS011;16786;49.466;11.068;2023-05-07T03:22:54;10.52;;;7.25;;
29916;SDS011;16786;49.466;11.068;2023-05-07T03:25:22;11.02;;;7.88;;
29916;SDS011;16786;49.466;11.068;2023-05-07T03:27:49;7.47;;;6.70;;
29916;SDS011;16786;49.466;11.068;2023-05-07T03:30:20;9.30;;;7.25;;
29916;SDS011;16786;49.466;11.068;2023-05-07T03:32:47;11.23;;;7.18;;
29916;SDS011;16786;49.466;11.068;2023-05-07T03:35:15;8.55;;;7.55;;
29916;SDS011;16786;49.466;11.068;2023-05-07T03:37:42;11.18;;;7.47;;
29916;SDS011;16786;49.466;11.068;2023-05-07T03:40:11;8.75;;;6.97;;
29916;SDS011;16786;49.466;11.068;2023-05-07T03:42:49;12.50;;;7.82;;
29916;SDS011;16786;49.466;11.068;2023-05-07T03:45:19;9.02;;;7.88;;
29916;SDS011;16786;49.466;11.068;2023-05-07T03:47:55;9.25;;;7.63;;
29916;SDS011;16786;49.466;11.068;2023-05-07T03:50:23;12.38;;;7.85;;
29916;SDS011;16786;49.466;11.068;2023-05-07T03:52:51;9.07;;;7.78;;
29916;SDS011;16786;49.466;11.068;2023-05-07T03:55:21;9.55;;;8.05;;
29916;SDS011;16786;49.466;11.068;2023-05-07T03:57:53;9.65;;;7.43;;
29916;SDS011;16786;49.466;11.068;2023-05-07T04:00:21;10.00;;;7.40;;
29916;SDS011;16786;49.466;11.068;2023-05-07T04:02:49;9.70;;;7.50;;
29916;SDS011;16786;49.466;11.068;2023-05-07T04:05:25;8.90;;;7.72;;
29916;SDS011;16786;49.466;11.068;2023-05-07T04:10:31;10.30;;;7.75;;
29916;SDS011;16786;49.466;11.068;2023-05-07T04:13:03;8.90;;;7.67;;
29916;SDS011;16786;49.466;11.068;2023-05-07T04:15:30;11.27;;;7.85;;
29916;SDS011;16786;49.466;11.068;2023-05-07T04:17:59;9.27;;;7.35;;
29916;SDS011;16786;49.466;11.068;2023-05-07T04:20:26;10.35;;;7.60;;
29916;SDS011;16786;49.466;11.068;2023-05-07T04:23:00;9.15;;;7.38;;
29916;SDS011;16786;49.466;11.068;2023-05-07T04:25:27;12.77;;;8.27;;
29916;SDS011;16786;49.466;11.068;2023-05-07T04:28:02;10.57;;;8.48;;
29916;SDS011;16786;49.466;11.068;2023-05-07T04:30:30;9.10;;;7.88;;
29916;SDS011;16786;49.466;11.068;2023-05-07T04:32:58;10.45;;;8.25;;
29916;SDS011;16786;49.466;11.068;2023-05-07T04:35:29;9.32;;;7.60;;
29916;SDS011;16786;49.466;11.068;2023-05-07T04:37:57;11.02;;;8.38;;
29916;SDS011;16786;49.466;11.068;2023-05-07T04:40:24;11.13;;;8.30;;
29916;SDS011;16786;49.466;11.068;2023-05-07T04:42:53;12.43;;;7.93;;
29916;SDS011;16786;49.466;11.068;2023-05-07T04:45:22;10.13;;;8.23;;
29916;SDS011;16786;49.466;11.068;2023-05-07T04:47:51;11.10;;;8.20;;
29916;SDS011;16786;49.466;11.068;2023-05-07T04:50:19;11.27;;;8.20;;
29916;SDS011;16786;49.466;11.068;2023-05-07T04:52:48;8.70;;;7.57;;
29916;SDS011;16786;49.466;11.068;2023-05-07T04:55:15;10.48;;;8.25;;
29916;SDS011;16786;49.466;11.068;2023-05-07T04:57:43;11.00;;;8.20;;
29916;SDS011;16786;49.466;11.068;2023-05-07T05:00:13;9.57;;;8.18;;
29916;SDS011;16786;49.466;11.068;2023-05-07T05:02:43;9.43;;;7.78;;
29916;SDS011;16786;49.466;11.068;2023-05-07T05:05:15;9.52;;;8.27;;
29916;SDS011;16786;49.466;11.068;2023-05-07T05:07:43;10.85;;;8.50;;
29916;SDS011;16786;49.466;11.068;2023-05-07T05:10:11;14.27;;;8.75;;
29916;SDS011;16786;49.466;11.068;2023-05-07T05:12:40;10.68;;;8.35;;
29916;SDS011;16786;49.466;11.068;2023-05-07T05:15:08;12.45;;;9.02;;
29916;SDS011;16786;49.466;11.068;2023-05-07T05:17:39;10.90;;;9.68;;
29916;SDS011;16786;49.466;11.068;2023-05-07T05:20:07;11.13;;;8.77;;
29916;SDS011;16786;49.466;11.068;2023-05-07T05:22:37;10.10;;;8.60;;
29916;SDS011;16786;49.466;11.068;2023-05-07T05:25:06;9.90;;;8.30;;
29916;SDS011;16786;49.466;11.068;2023-05-07T05:27:34;9.32;;;8.25;;
29916;SDS011;16786;49.466;11.068;2023-05-07T05:30:02;10.65;;;8.55;;
29916;SDS011;16786;49.466;11.068;2023-05-07T05:32:31;9.80;;;8.63;;
29916;SDS011;16786;49.466;11.068;2023-05-07T05:35:00;12.20;;;9.55;;
29916;SDS011;16786;49.466;11.068;2023-05-07T05:37:29;9.77;;;8.48;;
29916;SDS011;16786;49.466;11.068;2023-05-07T05:40:00;9.85;;;8.27;;
29916;SDS011;16786;49.466;11.068;2023-05-07T05:42:29;11.85;;;8.32;;
29916;SDS011;16786;49.466;11.068;2023-05-07T05:44:56;12.90;;;8.75;;
29916;SDS011;16786;49.466;11.068;2023-05-07T05:47:24;10.95;;;9.10;;
29916;SDS011;16786;49.466;11.068;2023-05-07T05:49:54;10.25;;;8.77;;
29916;SDS011;16786;49.466;11.068;2023-05-07T05:52:21;9.63;;;8.63;;
29916;SDS011;16786;49.466;11.068;2023-05-07T05:54:50;12.10;;;9.55;;
29916;SDS011;16786;49.466;11.068;2023-05-07T05:57:18;12.50;;;9.77;;
29916;SDS011;16786;49.466;11.068;2023-05-07T05:59:46;10.77;;;9.30;;
29916;SDS011;16786;49.466;11.068;2023-05-07T06:02:14;12.88;;;9.75;;
29916;SDS011;16786;49.466;11.068;2023-05-07T06:04:42;10.25;;;8.90;;
29916;SDS011;16786;49.466;11.068;2023-05-07T06:07:14;12.88;;;9.57;;
29916;SDS011;16786;49.466;11.068;2023-05-07T06:09:41;11.60;;;9.57;;
29916;SDS011;16786;49.466;11.068;2023-05-07T06:12:09;15.32;;;11.23;;
29916;SDS011;16786;49.466;11.068;2023-05-07T06:14:36;18.38;;;10.75;;
29916;SDS011;16786;49.466;11.068;2023-05-07T06:17:04;10.95;;;9.05;;
29916;SDS011;16786;49.466;11.068;2023-05-07T06:19:32;11.88;;;8.95;;
29916;SDS011;16786;49.466;11.068;2023-05-07T06:21:59;12.77;;;9.35;;
29916;SDS011;16786;49.466;11.068;2023-05-07T06:24:30;12.18;;;9.52;;
29916;SDS011;16786;49.466;11.068;2023-05-07T06:26:57;10.90;;;8.90;;
29916;SDS011;16786;49.466;11.068;2023-05-07T06:29:26;11.13;;;9.13;;
29916;SDS011;16786;49.466;11.068;2023-05-07T06:31:54;9.90;;;8.85;;
29916;SDS011;16786;49.466;11.068;2023-05-07T06:34:22;11.13;;;9.27;;
29916;SDS011;16786;49.466;11.068;2023-05-07T06:36:50;11.40;;;8.73;;
29916;SDS011;16786;49.466;11.068;2023-05-07T06:39:32;8.98;;;8.05;;
29916;SDS011;16786;49.466;11.068;2023-05-07T06:42:00;9.88;;;8.23;;
29916;SDS011;16786;49.466;11.068;2023-05-07T06:44:31;11.05;;;9.23;;
29916;SDS011;16786;49.466;11.068;2023-05-07T06:47:07;10.82;;;9.30;;
29916;SDS011;16786;49.466;11.068;2023-05-07T06:49:37;10.75;;;8.63;;
29916;SDS011;16786;49.466;11.068;2023-05-07T06:52:04;10.85;;;9.02;;
29916;SDS011;16786;49.466;11.068;2023-05-07T06:54:32;13.52;;;9.90;;
29916;SDS011;16786;49.466;11.068;2023-05-07T06:57:00;9.98;;;8.80;;
29916;SDS011;16786;49.466;11.068;2023-05-07T06:59:29;10.60;;;9.43;;
29916;SDS011;16786;49.466;11.068;2023-05-07T07:01:56;13.52;;;10.98;;
29916;SDS011;16786;49.466;11.068;2023-05-07T07:04:23;12.90;;;9.40;;
29916;SDS011;16786;49.466;11.068;2023-05-07T07:06:59;10.57;;;9.48;;
29916;SDS011;16786;49.466;11.068;2023-05-07T07:09:28;12.05;;;10.50;;
29916;SDS011;16786;49.466;11.068;2023-05-07T07:11:56;12.20;;;9.48;;
29916;SDS011;16786;49.466;11.068;2023-05-07T07:14:23;12.82;;;9.60;;
29916;SDS011;16786;49.466;11.068;2023-05-07T07:16:53;10.13;;;9.13;;
29916;SDS011;16786;49.466;11.068;2023-05-07T07:19:21;11.00;;;9.07;;
29916;SDS011;16786;49.466;11.068;2023-05-07T07:21:52;11.75;;;9.43;;
29916;SDS011;16786;49.466;11.068;2023-05-07T07:24:19;9.82;;;8.82;;
29916;SDS011;16786;49.466;11.068;2023-05-07T07:26:52;9.38;;;8.48;;
29916;SDS011;16786;49.466;11.068;2023-05-07T07:29:20;14.20;;;10.93;;
29916;SDS011;16786;49.466;11.068;2023-05-07T07:31:48;13.60;;;9.82;;
29916;SDS011;16786;49.466;11.068;2023-05-07T07:34:19;9.97;;;8.90;;
29916;SDS011;16786;49.466;11.068;2023-05-07T07:36:47;11.40;;;8.77;;
29916;SDS011;16786;49.466;11.068;2023-05-07T07:39:17;10.15;;;8.70;;
29916;SDS011;16786;49.466;11.068;2023-05-07T07:41:46;10.70;;;8.82;;
29916;SDS011;16786;49.466;11.068;2023-05-07T07:44:14;9.80;;;8.75;;
29916;SDS011;16786;49.466;11.068;2023-05-07T07:46:47;8.88;;;7.88;;
29916;SDS011;16786;49.466;11.068;2023-05-07T07:49:14;11.15;;;8.18;;
29916;SDS011;16786;49.466;11.068;2023-05-07T07:51:43;10.70;;;8.35;;
29916;SDS011;16786;49.466;11.068;2023-05-07T07:54:12;10.52;;;8.85;;
29916;SDS011;16786;49.466;11.068;2023-05-07T07:56:39;10.40;;;8.45;;
29916;SDS011;16786;49.466;11.068;2023-05-07T07:59:08;11.32;;;8.80;;
29916;SDS011;16786;49.466;11.068;2023-05-07T08:01:39;12.13;;;8.77;;
29916;SDS011;16786;49.466;11.068;2023-05-07T08:04:07;10.70;;;9.60;;
29916;SDS011;16786;49.466;11.068;2023-05-07T08:06:38;10.33;;;7.90;;
29916;SDS011;16786;49.466;11.068;2023-05-07T08:09:07;9.07;;;8.18;;
29916;SDS011;16786;49.466;11.068;2023-05-07T08:11:37;10.77;;;8.60;;
29916;SDS011;16786;49.466;11.068;2023-05-07T08:14:05;12.13;;;10.45;;
29916;SDS011;16786;49.466;11.068;2023-05-07T08:16:33;9.30;;;8.30;;
29916;SDS011;16786;49.466;11.068;2023-05-07T08:19:01;9.55;;;7.63;;
29916;SDS011;16786;49.466;11.068;2023-05-07T08:21:28;8.95;;;7.95;;
29916;SDS011;16786;49.466;11.068;2023-05-07T08:26:28;10.40;;;7.70;;
29916;SDS011;16786;49.466;11.068;2023-05-07T08:28:55;10.55;;;8.02;;
29916;SDS011;16786;49.466;11.068;2023-05-07T08:31:23;11.45;;;9.05;;
29916;SDS011;16786;49.466;11.068;2023-05-07T08:33:51;11.65;;;9.02;;
29916;SDS011;16786;49.466;11.068;2023-05-07T08:36:18;8.77;;;7.88;;
29916;SDS011;16786;49.466;11.068;2023-05-07T08:38:46;10.93;;;8.05;;
29916;SDS011;16786;49.466;11.068;2023-05-07T08:41:13;9.75;;;7.80;;
29916;SDS011;16786;49.466;11.068;2023-05-07T08:43:47;9.38;;;7.63;;
29916;SDS011;16786;49.466;11.068;2023-05-07T08:46:17;9.32;;;7.07;;
29916;SDS011;16786;49.466;11.068;2023-05-07T08:48:52;8.90;;;7.57;;
29916;SDS011;16786;49.466;11.068;2023-05-07T08:51:20;9.57;;;7.57;;
29916;SDS011;16786;49.466;11.068;2023-05-07T08:53:49;8.43;;;7.30;;
29916;SDS011;16786;49.466;11.068;2023-05-07T08:56:28;10.02;;;7.88;;
29916;SDS011;16786;49.466;11.068;2023-05-07T08:58:55;8.85;;;7.95;;
29916;SDS011;16786;49.466;11.068;2023-05-07T09:01:26;11.10;;;8.27;;
29916;SDS011;16786;49.466;11.068;2023-05-07T09:03:55;8.95;;;7.30;;
29916;SDS011;16786;49.466;11.068;2023-05-07T09:06:26;8.80;;;7.87;;
29916;SDS011;16786;49.466;11.068;2023-05-07T09:08:54;8.73;;;7.30;;
29916;SDS011;16786;49.466;11.068;2023-05-07T09:11:26;11.15;;;8.75;;
29916;SDS011;16786;49.466;11.068;2023-05-07T09:13:57;11.57;;;8.33;;
29916;SDS011;16786;49.466;11.068;2023-05-07T09:16:31;9.02;;;7.70;;
29916;SDS011;16786;49.466;11.068;2023-05-07T09:19:00;10.73;;;7.53;;
29916;SDS011;16786;49.466;11.068;2023-05-07T09:21:27;7.35;;;6.65;;
29916;SDS011;16786;49.466;11.068;2023-05-07T09:23:58;7.68;;;6.88;;
29916;SDS011;16786;49.466;11.068;2023-05-07T09:26:34;8.70;;;7.63;;
29916;SDS011;16786;49.466;11.068;2023-05-07T09:29:03;9.63;;;7.45;;
29916;SDS011;16786;49.466;11.068;2023-05-07T09:31:30;11.80;;;8.38;;
29916;SDS011;16786;49.466;11.068;2023-05-07T09:33:58;15.18;;;11.57;;
29916;SDS011;16786;49.466;11.068;2023-05-07T09:36:28;10.90;;;7.75;;
29916;SDS011;16786;49.466;11.068;2023-05-07T09:38:58;10.13;;;7.35;;
29916;SDS011;16786;49.466;11.068;2023-05-07T09:41:27;9.77;;;7.55;;
29916;SDS011;16786;49.466;11.068;2023-05-07T09:44:08;8.45;;;6.53;;
29916;SDS011;16786;49.466;11.068;2023-05-07T09:46:41;7.97;;;6.85;;
29916;SDS011;16786;49.466;11.068;2023-05-07T09:49:20;7.53;;;6.50;;
29916;SDS011;16786;49.466;11.068;2023-05-07T09:51:54;7.60;;;6.60;;
29916;SDS011;16786;49.466;11.068;2023-05-07T09:54:24;7.63;;;6.40;;
29916;SDS011;16786;49.466;11.068;2023-05-07T09:56:55;7.40;;;6.10;;
29916;SDS011;16786;49.466;11.068;2023-05-07T09:59:25;9.38;;;6.47;;
29916;SDS011;16786;49.466;11.068;2023-05-07T10:01:57;7.70;;;6.80;;
29916;SDS011;16786;49.466;11.068;2023-05-07T10:04:29;7.68;;;6.32;;
29916;SDS011;16786;49.466;11.068;2023-05-07T10:06:58;7.40;;;6.22;;
29916;SDS011;16786;49.466;11.068;2023-05-07T10:09:28;7.03;;;6.00;;
29916;SDS011;16786;49.466;11.068;2023-05-07T10:11:56;6.93;;;6.18;;
29916;SDS011;16786;49.466;11.068;2023-05-07T10:14:25;9.52;;;6.30;;
29916;SDS011;16786;49.466;11.068;2023-05-07T10:16:54;10.13;;;6.63;;
29916;SDS011;16786;49.466;11.068;2023-05-07T10:19:24;7.88;;;6.07;;
29916;SDS011;16786;49.466;11.068;2023-05-07T10:21:56;8.07;;;6.72;;
29916;SDS011;16786;49.466;11.068;2023-05-07T10:24:37;9.57;;;6.43;;
29916;SDS011;16786;49.466;11.068;2023-05-07T10:27:10;6.97;;;5.97;;
29916;SDS011;16786;49.466;11.068;2023-05-07T10:32:44;7.18;;;5.72;;
29916;SDS011;16786;49.466;11.068;2023-05-07T10:35:23;6.30;;;5.70;;
29916;SDS011;16786;49.466;11.068;2023-05-07T10:37:57;8.27;;;6.63;;
29916;SDS011;16786;49.466;11.068;2023-05-07T10:40:27;6.78;;;6.07;;
29916;SDS011;16786;49.466;11.068;2023-05-07T10:42:55;7.13;;;6.43;;
29916;SDS011;16786;49.466;11.068;2023-05-07T10:45:31;7.10;;;6.40;;
29916;SDS011;16786;49.466;11.068;2023-05-07T10:48:14;7.35;;;5.95;;
29916;SDS011;16786;49.466;11.068;2023-05-07T10:51:21;6.32;;;5.68;;
29916;SDS011;16786;49.466;11.068;2023-05-07T10:56:46;6.45;;;5.53;;
29916;SDS011;16786;49.466;11.068;2023-05-07T11:05:18;6.50;;;5.88;;
29916;SDS011;16786;49.466;11.068;2023-05-07T11:08:08;7.18;;;5.70;;
29916;SDS011;16786;49.466;11.068;2023-05-07T11:10:56;7.50;;;5.70;;
29916;SDS011;16786;49.466;11.068;2023-05-07T11:13:54;7.00;;;5.50;;
29916;SDS011;16786;49.466;11.068;2023-05-07T11:16:35;6.97;;;6.28;;
29916;SDS011;16786;49.466;11.068;2023-05-07T11:19:18;6.30;;;5.28;;
29916;SDS011;16786;49.466;11.068;2023-05-07T11:22:39;6.35;;;5.75;;
29916;SDS011;16786;49.466;11.068;2023-05-07T11:25:24;6.38;;;5.60;;
29916;SDS011;16786;49.466;11.068;2023-05-07T11:28:04;7.13;;;6.38;;
29916;SDS011;16786;49.466;11.068;2023-05-07T11:30:33;6.70;;;6.10;;
29916;SDS011;16786;49.466;11.068;2023-05-07T11:33:03;6.82;;;6.10;;
29916;SDS011;16786;49.466;11.068;2023-05-07T11:35:33;7.15;;;6.20;;
29916;SDS011;16786;49.466;11.068;2023-05-07T11:38:04;7.85;;;5.68;;
29916;SDS011;16786;49.466;11.068;2023-05-07T11:40:33;7.57;;;5.70;;
29916;SDS011;16786;49.466;11.068;2023-05-07T11:43:09;6.43;;;5.30;;
29916;SDS011;16786;49.466;11.068;2023-05-07T11:45:37;7.38;;;5.57;;
29916;SDS011;16786;49.466;11.068;2023-05-07T11:48:05;5.90;;;5.40;;
29916;SDS011;16786;49.466;11.068;2023-05-07T11:50:32;7.50;;;5.78;;
29916;SDS011;16786;49.466;11.068;2023-05-07T11:53:00;5.75;;;5.15;;
29916;SDS011;16786;49.466;11.068;2023-05-07T11:55:27;5.97;;;5.22;;
29916;SDS011;16786;49.466;11.068;2023-05-07T11:57:55;7.78;;;5.50;;
29916;SDS011;16786;49.466;11.068;2023-05-07T12:00:22;6.07;;;5.18;;
29916;SDS011;16786;49.466;11.068;2023-05-07T12:02:50;6.30;;;5.70;;
29916;SDS011;16786;49.466;11.068;2023-05-07T12:05:17;5.60;;;5.10;;
29916;SDS011;16786;49.466;11.068;2023-05-07T12:07:45;5.85;;;5.35;;
29916;SDS011;16786;49.466;11.068;2023-05-07T12:10:12;5.70;;;5.20;;
29916;SDS011;16786;49.466;11.068;2023-05-07T12:12:40;6.05;;;5.45;;
29916;SDS011;16786;49.466;11.068;2023-05-07T12:15:11;6.47;;;5.20;;
29916;SDS011;16786;49.466;11.068;2023-05-07T12:17:43;5.72;;;5.22;;
29916;SDS011;16786;49.466;11.068;2023-05-07T12:20:11;6.88;;;5.47;;
29916;SDS011;16786;49.466;11.068;2023-05-07T12:22:40;5.95;;;5.38;;
29916;SDS011;16786;49.466;11.068;2023-05-07T12:25:09;6.68;;;5.93;;
29916;SDS011;16786;49.466;11.068;2023-05-07T12:27:37;6.43;;;5.72;;
29916;SDS011;16786;49.466;11.068;2023-05-07T12:30:09;6.28;;;5.68;;
29916;SDS011;16786;49.466;11.068;2023-05-07T12:32:37;9.25;;;6.32;;
29916;SDS011;16786;49.466;11.068;2023-05-07T12:35:05;6.35;;;5.75;;
29916;SDS011;16786;49.466;11.068;2023-05-07T12:37:33;8.15;;;5.90;;
29916;SDS011;16786;49.466;11.068;2023-05-07T12:40:07;7.28;;;6.28;;
29916;SDS011;16786;49.466;11.068;2023-05-07T12:42:36;7.00;;;6.40;;
29916;SDS011;16786;49.466;11.068;2023-05-07T12:45:08;7.05;;;6.35;;
29916;SDS011;16786;49.466;11.068;2023-05-07T12:47:46;7.07;;;6.32;;
29916;SDS011;16786;49.466;11.068;2023-05-07T12:50:14;6.78;;;5.93;;
29916;SDS011;16786;49.466;11.068;2023-05-07T12:52:47;8.27;;;6.20;;
29916;SDS011;16786;49.466;11.068;2023-05-07T12:55:15;6.57;;;5.97;;
29916;SDS011;16786;49.466;11.068;2023-05-07T12:57:47;7.07;;;6.38;;
29916;SDS011;16786;49.466;11.068;2023-05-07T13:00:15;7.45;;;6.47;;
29916;SDS011;16786;49.466;11.068;2023-05-07T13:02:43;7.35;;;5.90;;
29916;SDS011;16786;49.466;11.068;2023-05-07T13:05:12;6.82;;;6.22;;
29916;SDS011;16786;49.466;11.068;2023-05-07T13:07:40;7.82;;;6.63;;
29916;SDS011;16786;49.466;11.068;2023-05-07T13:10:19;8.27;;;6.30;;
29916;SDS011;16786;49.466;11.068;2023-05-07T13:12:48;6.65;;;5.95;;
29916;SDS011;16786;49.466;11.068;2023-05-07T13:15:15;7.65;;;5.65;;
29916;SDS011;16786;49.466;11.068;2023-05-07T13:17:43;6.40;;;5.50;;
29916;SDS011;16786;49.466;11.068;2023-05-07T13:20:11;6.43;;;5.82;;
29916;SDS011;16786;49.466;11.068;2023-05-07T13:22:44;7.13;;;6.40;;
29916;SDS011;16786;49.466;11.068;2023-05-07T13:25:12;6.63;;;6.00;;
29916;SDS011;16786;49.466;11.068;2023-05-07T13:27:43;6.72;;;6.03;;
29916;SDS011;16786;49.466;11.068;2023-05-07T13:30:12;6.82;;;6.22;;
29916;SDS011;16786;49.466;11.068;2023-05-07T13:32:39;6.45;;;5.82;;
29916;SDS011;16786;49.466;11.068;2023-05-07T13:35:07;7.35;;;6.28;;
29916;SDS011;16786;49.466;11.068;2023-05-07T13:37:34;7.22;;;6.10;;
29916;SDS011;16786;49.466;11.068;2023-05-07T13:40:02;6.75;;;6.07;;
29916;SDS011;16786;49.466;11.068;2023-05-07T13:42:30;6.35;;;5.75;;
29916;SDS011;16786;49.466;11.068;2023-05-07T13:44:57;6.20;;;5.60;;
29916;SDS011;16786;49.466;11.068;2023-05-07T13:47:25;6.40;;;5.78;;
29916;SDS011;16786;49.466;11.068;2023-05-07T13:49:53;6.63;;;6.03;;
29916;SDS011;16786;49.466;11.068;2023-05-07T13:52:20;6.38;;;5.78;;
29916;SDS011;16786;49.466;11.068;2023-05-07T13:54:48;6.32;;;5.28;;
29916;SDS011;16786;49.466;11.068;2023-05-07T13:57:16;6.00;;;5.50;;
29916;SDS011;16786;49.466;11.068;2023-05-07T13:59:43;6.70;;;5.78;;
29916;SDS011;16786;49.466;11.068;2023-05-07T14:02:10;6.55;;;5.95;;
29916;SDS011;16786;49.466;11.068;2023-05-07T14:04:38;6.70;;;6.03;;
29916;SDS011;16786;49.466;11.068;2023-05-07T14:07:06;7.57;;;6.03;;
29916;SDS011;16786;49.466;11.068;2023-05-07T14:09:33;5.80;;;5.30;;
29916;SDS011;16786;49.466;11.068;2023-05-07T14:12:01;7.53;;;5.97;;
29916;SDS011;16786;49.466;11.068;2023-05-07T14:14:28;7.10;;;5.50;;
29916;SDS011;16786;49.466;11.068;2023-05-07T14:16:56;6.20;;;5.60;;
29916;SDS011;16786;49.466;11.068;2023-05-07T14:19:24;6.38;;;5.65;;
29916;SDS011;16786;49.466;11.068;2023-05-07T14:21:51;6.07;;;5.57;;
29916;SDS011;16786;49.466;11.068;2023-05-07T14:24:19;7.75;;;5.63;;
29916;SDS011;16786;49.466;11.068;2023-05-07T14:27:02;6.70;;;5.80;;
29916;SDS011;16786;49.466;11.068;2023-05-07T14:29:30;5.45;;;4.95;;
29916;SDS011;16786;49.466;11.068;2023-05-07T14:31:58;5.57;;;5.00;;
29916;SDS011;16786;49.466;11.068;2023-05-07T14:34:26;5.57;;;5.07;;
29916;SDS011;16786;49.466;11.068;2023-05-07T14:36:53;5.80;;;5.30;;
29916;SDS011;16786;49.466;11.068;2023-05-07T14:39:22;5.68;;;5.18;;
29916;SDS011;16786;49.466;11.068;2023-05-07T14:41:49;6.43;;;5.82;;
29916;SDS011;16786;49.466;11.068;2023-05-07T14:44:16;6.22;;;5.72;;
29916;SDS011;16786;49.466;11.068;2023-05-07T14:46:45;8.88;;;5.75;;
29916;SDS011;16786;49.466;11.068;2023-05-07T14:49:13;6.47;;;5.88;;
29916;SDS011;16786;49.466;11.068;2023-05-07T14:51:44;6.57;;;5.97;;
29916;SDS011;16786;49.466;11.068;2023-05-07T14:54:12;7.05;;;5.60;;
29916;SDS011;16786;49.466;11.068;2023-05-07T14:56:40;6.97;;;6.38;;
29916;SDS011;16786;49.466;11.068;2023-05-07T14:59:09;7.25;;;6.40;;
29916;SDS011;16786;49.466;11.068;2023-05-07T15:01:45;7.55;;;6.85;;
29916;SDS011;16786;49.466;11.068;2023-05-07T15:04:14;7.50;;;6.88;;